Time;durP1;ratioP1;P1;durP2;ratioP2;P2;SDS_P1;SDS_P2;PMS_P1;PMS_P2;Temp;Humidity;BMP_temperature;BMP_pressure;BME280_temperature;BME280_humidity;BME280_pressure;Samples;Min_cycle;Max_cycle;Signal;HPM_P1;HPM_P2
2021/01/25 00:00:57;;;;;;;10.58;8.73;;;;;;;6.67;100.00;98520.38;1647386;87;21397;-81
2021/01/25 00:03:24;;;;;;;10.35;9.25;;;;;;;6.74;100.00;98512.45;1646900;85;21148;-74
2021/01/25 00:05:52;;;;;;;10.00;8.83;;;;;;;6.73;100.00;98514.03;1647155;87;21621;-73
2021/01/25 00:08:19;;;;;;;10.55;8.33;;;;;;;6.68;100.00;98509.97;1647128;87;21025;-74
2021/01/25 00:10:47;;;;;;;9.00;7.97;;;;;;;6.65;100.00;98525.18;1651730;85;21483;-74
2021/01/25 00:13:15;;;;;;;9.73;7.97;;;;;;;6.62;100.00;98523.80;1637595;87;21446;-74
2021/01/25 00:15:49;;;;;;;9.60;6.87;;;;;;;6.52;100.00;98522.40;1647509;87;21636;-73
2021/01/25 00:18:17;;;;;;;11.63;9.05;;;;;;;6.51;100.00;98519.45;1648047;87;20973;-72
2021/01/25 00:20:45;;;;;;;10.53;9.43;;;;;;;6.50;100.00;98527.98;1647246;85;21094;-71
2021/01/25 00:23:12;;;;;;;8.15;7.22;;;;;;;6.47;100.00;98517.81;1646442;86;21190;-70
2021/01/25 00:25:40;;;;;;;13.13;10.93;;;;;;;6.47;100.00;98525.83;1646334;86;23533;-75
2021/01/25 00:28:07;;;;;;;13.95;9.60;;;;;;;6.45;100.00;98518.58;1646346;87;21156;-76
2021/01/25 00:30:34;;;;;;;9.43;7.15;;;;;;;6.45;100.00;98517.25;1646768;87;21158;-78
2021/01/25 00:33:02;;;;;;;11.57;9.08;;;;;;;6.44;100.00;98519.63;1645703;87;21201;-75
2021/01/25 00:35:29;;;;;;;9.28;8.28;;;;;;;6.48;100.00;98515.40;1645828;87;21649;-69
2021/01/25 00:37:57;;;;;;;8.90;7.87;;;;;;;6.56;100.00;98518.16;1645616;87;21667;-72
2021/01/25 00:40:26;;;;;;;10.95;7.97;;;;;;;6.59;100.00;98525.66;1645524;87;21941;-72
2021/01/25 00:42:53;;;;;;;15.08;9.60;;;;;;;6.57;100.00;98519.75;1646947;87;21105;-74
2021/01/25 00:45:22;;;;;;;15.78;11.05;;;;;;;6.50;100.00;98524.50;1619142;87;21105;-69
2021/01/25 00:47:49;;;;;;;24.80;13.00;;;;;;;6.44;100.00;98522.30;1646961;87;21132;-70
2021/01/25 00:50:18;;;;;;;17.80;10.98;;;;;;;6.41;100.00;98520.14;1645718;87;21227;-73
2021/01/25 00:52:47;;;;;;;19.48;12.73;;;;;;;6.41;100.00;98518.00;1643541;87;21066;-70
2021/01/25 00:55:15;;;;;;;11.10;8.73;;;;;;;6.44;100.00;98518.83;1647114;87;21051;-71
2021/01/25 00:57:43;;;;;;;19.82;11.33;;;;;;;6.48;100.00;98518.06;1647291;86;21074;-72
2021/01/25 01:00:12;;;;;;;12.25;7.95;;;;;;;6.46;100.00;98511.38;1647177;85;21177;-71
2021/01/25 01:02:39;;;;;;;9.35;8.18;;;;;;;6.47;100.00;98513.81;1647117;87;22245;-76
2021/01/25 01:05:09;;;;;;;7.85;6.05;;;;;;;6.51;100.00;98502.09;1647091;87;21197;-70
2021/01/25 01:07:36;;;;;;;21.97;14.28;;;;;;;6.50;100.00;98499.94;1647083;85;21563;-76
2021/01/25 01:10:06;;;;;;;7.45;5.87;;;;;;;6.49;100.00;98496.17;1646977;87;21042;-75
2021/01/25 01:12:36;;;;;;;9.53;7.25;;;;;;;6.48;100.00;98493.22;1645048;85;21578;-74
2021/01/25 01:15:11;;;;;;;13.10;10.45;;;;;;;6.45;100.00;98493.21;1654053;86;21219;-73
2021/01/25 01:17:40;;;;;;;11.03;8.95;;;;;;;6.40;100.00;98496.36;1653363;86;21126;-72
2021/01/25 01:20:10;;;;;;;12.60;8.40;;;;;;;6.36;100.00;98497.39;1653464;86;21188;-68
2021/01/25 01:22:38;;;;;;;9.45;8.48;;;;;;;6.32;100.00;98489.62;1653294;86;21135;-72
2021/01/25 01:25:09;;;;;;;10.15;7.67;;;;;;;6.27;100.00;98488.75;1654577;86;21146;-71
2021/01/25 01:27:37;;;;;;;10.43;8.65;;;;;;;6.19;100.00;98491.33;1654758;86;21202;-70
2021/01/25 01:30:08;;;;;;;14.47;10.50;;;;;;;6.13;100.00;98488.34;1654720;86;21181;-74
2021/01/25 01:32:36;;;;;;;15.38;12.45;;;;;;;6.11;100.00;98483.25;1654682;86;21051;-75
2021/01/25 01:35:06;;;;;;;9.03;8.05;;;;;;;6.13;100.00;98485.67;1654557;86;21646;-69
2021/01/25 01:37:34;;;;;;;14.30;12.10;;;;;;;6.14;100.00;98487.27;1653343;86;21194;-67
2021/01/25 01:40:05;;;;;;;14.07;11.45;;;;;;;6.13;100.00;98484.34;1653398;86;21849;-70
2021/01/25 01:42:34;;;;;;;13.43;11.08;;;;;;;6.12;100.00;98488.88;1653678;86;21168;-76
2021/01/25 01:45:25;;;;;;;11.73;10.35;;;;;;;6.13;100.00;98491.83;1655465;86;21181;-73
2021/01/25 01:47:53;;;;;;;14.58;11.00;;;;;;;6.21;100.00;98495.89;1678781;85;21633;-73
2021/01/25 01:50:20;;;;;;;9.68;8.35;;;;;;;6.24;100.00;98491.91;1657089;85;21151;-73
2021/01/25 01:52:48;;;;;;;13.45;12.00;;;;;;;6.22;100.00;98486.03;1678473;85;21183;-74
2021/01/25 01:55:16;;;;;;;13.13;11.83;;;;;;;6.21;100.00;98492.42;1678097;85;21183;-72
2021/01/25 01:57:43;;;;;;;11.38;10.03;;;;;;;6.21;100.00;98495.09;1648019;85;21187;-71
2021/01/25 02:00:13;;;;;;;13.53;11.00;;;;;;;6.20;100.00;98494.80;1658256;85;21627;-71
2021/01/25 02:02:43;;;;;;;13.10;11.57;;;;;;;6.18;100.00;98495.59;1676443;84;21032;-70
2021/01/25 02:05:13;;;;;;;13.60;10.18;;;;;;;6.22;100.00;98486.03;1649501;87;21274;-70
2021/01/25 02:07:44;;;;;;;12.93;11.50;;;;;;;6.20;100.00;98492.14;1649510;87;21192;-71
2021/01/25 02:10:13;;;;;;;15.43;11.90;;;;;;;6.14;100.00;98492.60;1649693;87;21172;-72
2021/01/25 02:12:41;;;;;;;18.73;13.30;;;;;;;6.08;100.00;98492.29;1649433;87;21140;-71
2021/01/25 02:15:10;;;;;;;16.70;14.93;;;;;;;6.03;100.00;98486.38;1649505;87;21195;-72
2021/01/25 02:17:37;;;;;;;17.52;14.50;;;;;;;6.02;100.00;98490.09;1649549;87;21220;-71
2021/01/25 02:20:18;;;;;;;21.35;12.37;;;;;;;6.02;100.00;98491.42;1662584;85;21188;-70
2021/01/25 02:23:01;;;;;;;16.30;14.65;;;;;;;6.01;100.00;98491.66;1676949;85;21199;-80
2021/01/25 02:25:40;;;;;;;15.50;13.83;;;;;;;5.95;100.00;98497.46;1679215;84;21161;-78
2021/01/25 02:28:07;;;;;;;13.28;11.30;;;;;;;5.93;100.00;98499.59;1691607;84;21144;-80
2021/01/25 02:30:35;;;;;;;17.30;14.53;;;;;;;5.94;100.00;98497.20;1708006;84;21232;-79
2021/01/25 02:33:02;;;;;;;20.55;16.37;;;;;;;5.94;100.00;98496.39;1705765;84;21196;-81
2021/01/25 02:35:31;;;;;;;18.73;16.45;;;;;;;5.90;100.00;98503.29;1684655;84;21168;-80
2021/01/25 02:37:59;;;;;;;17.65;15.78;;;;;;;5.90;100.00;98509.96;1677031;85;21198;-84
2021/01/25 02:40:26;;;;;;;15.10;13.50;;;;;;;5.90;100.00;98508.63;1707151;84;21237;-70
2021/01/25 02:42:55;;;;;;;17.32;13.50;;;;;;;5.90;100.00;98510.74;1674728;85;22370;-71
2021/01/25 02:45:23;;;;;;;17.45;14.35;;;;;;;5.93;100.00;98516.13;1705875;84;21162;-75
2021/01/25 02:47:51;;;;;;;14.78;12.95;;;;;;;6.00;100.00;98514.87;1707722;82;21182;-72
2021/01/25 02:50:18;;;;;;;15.50;13.72;;;;;;;6.03;100.00;98514.39;1677567;85;21138;-74
2021/01/25 02:52:45;;;;;;;14.55;13.05;;;;;;;6.00;100.00;98510.87;1703777;84;21221;-72
2021/01/25 02:55:13;;;;;;;17.02;12.45;;;;;;;6.00;100.00;98510.87;1707592;84;21229;-72
2021/01/25 02:57:40;;;;;;;9.93;8.88;;;;;;;5.97;100.00;98504.70;1677657;85;21629;-71
2021/01/25 03:00:09;;;;;;;13.43;12.03;;;;;;;5.94;100.00;98515.08;1674851;85;21195;-71
2021/01/25 03:02:37;;;;;;;11.85;9.93;;;;;;;5.89;100.00;98520.34;1678392;85;21180;-72
2021/01/25 03:05:06;;;;;;;11.50;10.30;;;;;;;5.80;100.00;98518.61;1698699;84;21167;-72
2021/01/25 03:07:33;;;;;;;22.55;12.30;;;;;;;5.74;100.00;98520.12;1707033;84;21374;-73
2021/01/25 03:10:04;;;;;;;15.55;11.57;;;;;;;5.69;100.00;98518.20;1713418;82;21015;-72
2021/01/25 03:12:33;;;;;;;14.13;12.20;;;;;;;5.63;100.00;98513.31;1709821;82;21187;-71
2021/01/25 03:15:00;;;;;;;19.35;11.35;;;;;;;5.62;100.00;98518.88;1708680;84;21176;-72
2021/01/25 03:17:27;;;;;;;16.85;13.98;;;;;;;5.60;100.00;98517.81;1708779;82;21180;-72
2021/01/25 03:19:56;;;;;;;13.35;12.03;;;;;;;5.59;100.00;98510.87;1708603;82;21180;-72
2021/01/25 03:22:24;;;;;;;13.28;10.63;;;;;;;5.65;100.00;98517.08;1680148;85;21624;-73
2021/01/25 03:24:52;;;;;;;14.40;11.88;;;;;;;5.64;100.00;98515.45;1708376;82;21124;-73
2021/01/25 03:27:19;;;;;;;14.80;12.13;;;;;;;5.64;100.00;98510.13;1724341;82;21154;-72
2021/01/25 03:29:46;;;;;;;13.35;9.48;;;;;;;5.69;100.00;98511.53;1708548;84;21170;-72
2021/01/25 03:32:14;;;;;;;13.32;11.00;;;;;;;5.79;100.00;98502.84;1678563;85;21245;-75
2021/01/25 03:34:42;;;;;;;13.93;12.28;;;;;;;5.78;100.00;98503.89;1706939;84;21065;-72
2021/01/25 03:37:09;;;;;;;18.87;13.70;;;;;;;5.71;100.00;98504.88;1677168;85;20974;-72
2021/01/25 03:39:37;;;;;;;21.20;15.72;;;;;;;5.64;100.00;98512.27;1706955;84;21163;-71
2021/01/25 03:42:05;;;;;;;31.82;15.35;;;;;;;5.67;100.00;98511.77;1707390;84;21526;-73
2021/01/25 03:44:33;;;;;;;26.95;13.22;;;;;;;5.73;100.00;98508.64;1677194;85;22850;-76
2021/01/25 03:47:01;;;;;;;20.82;13.50;;;;;;;5.76;100.00;98506.80;1699404;83;21179;-72
2021/01/25 03:49:29;;;;;;;24.27;16.20;;;;;;;5.75;100.00;98508.41;1691756;84;21215;-71
2021/01/25 03:51:56;;;;;;;24.47;17.15;;;;;;;5.79;100.00;98504.98;1690860;84;21222;-72
2021/01/25 03:54:24;;;;;;;24.52;17.62;;;;;;;5.84;100.00;98498.91;1688068;84;21639;-73
2021/01/25 03:56:52;;;;;;;28.55;16.45;;;;;;;5.88;100.00;98482.71;1693193;84;21190;-75
2021/01/25 03:59:19;;;;;;;20.75;10.88;;;;;;;5.94;100.00;98480.39;1661386;86;21591;-73
2021/01/25 04:01:47;;;;;;;18.17;12.40;;;;;;;5.90;100.00;98480.61;1675325;85;21024;-73
2021/01/25 04:04:14;;;;;;;18.60;13.40;;;;;;;5.81;100.00;98470.84;1676033;85;21620;-74
2021/01/25 04:06:43;;;;;;;11.75;10.55;;;;;;;5.75;100.00;98466.53;1674891;85;21196;-72
2021/01/25 04:09:10;;;;;;;10.78;9.35;;;;;;;5.77;100.00;98464.41;1674520;85;22212;-73
2021/01/25 04:11:38;;;;;;;10.03;9.08;;;;;;;5.76;100.00;98465.45;1678155;84;21595;-72
2021/01/25 04:14:05;;;;;;;12.43;10.40;;;;;;;5.76;100.00;98465.45;1702050;84;21165;-71
2021/01/25 04:16:33;;;;;;;13.22;8.48;;;;;;;5.75;100.00;98465.20;1693945;84;21226;-72
2021/01/25 04:19:02;;;;;;;9.75;8.65;;;;;;;5.78;100.00;98467.36;1661295;86;21166;-74
2021/01/25 04:21:30;;;;;;;12.50;10.10;;;;;;;5.76;100.00;98468.64;1673358;85;21214;-72
2021/01/25 04:23:57;;;;;;;11.03;9.88;;;;;;;5.74;100.00;98472.10;1673394;85;21678;-74
2021/01/25 04:26:24;;;;;;;10.65;9.65;;;;;;;5.75;100.00;98470.53;1674515;85;20984;-72
2021/01/25 04:28:53;;;;;;;11.48;10.23;;;;;;;5.82;100.00;98471.66;1675081;85;21140;-71
2021/01/25 04:31:20;;;;;;;11.18;9.20;;;;;;;5.86;100.00;98473.58;1674925;85;21219;-71
2021/01/25 04:33:48;;;;;;;13.15;11.00;;;;;;;5.85;100.00;98466.63;1674865;85;21212;-71
2021/01/25 04:36:15;;;;;;;11.03;9.80;;;;;;;5.83;100.00;98470.61;1674991;85;21078;-72
2021/01/25 04:38:43;;;;;;;13.08;10.82;;;;;;;5.85;100.00;98464.52;1676592;85;21125;-71
2021/01/25 04:41:10;;;;;;;9.95;8.60;;;;;;;5.91;100.00;98472.86;1675354;85;21057;-71
2021/01/25 04:43:38;;;;;;;11.90;10.63;;;;;;;5.93;100.00;98472.91;1674938;85;21127;-71
2021/01/25 04:46:05;;;;;;;11.65;9.70;;;;;;;5.89;100.00;98475.80;1675072;85;22112;-70
2021/01/25 04:48:32;;;;;;;8.93;7.80;;;;;;;5.85;100.00;98464.52;1659145;84;21170;-71
2021/01/25 04:51:01;;;;;;;13.00;10.70;;;;;;;5.74;100.00;98470.25;1708958;84;21164;-75
2021/01/25 04:53:28;;;;;;;11.65;10.45;;;;;;;5.71;100.00;98474.20;1695996;83;21130;-71
2021/01/25 04:55:56;;;;;;;12.58;10.18;;;;;;;5.61;100.00;98466.06;1678789;84;21209;-72
2021/01/25 04:58:24;;;;;;;11.88;9.40;;;;;;;5.58;100.00;98465.24;1708543;84;21383;-71
2021/01/25 05:00:51;;;;;;;14.03;11.33;;;;;;;5.63;100.00;98461.83;1705161;84;21226;-71
2021/01/25 05:03:21;;;;;;;13.03;10.90;;;;;;;5.54;100.00;98461.98;1706767;84;21157;-71
2021/01/25 05:05:49;;;;;;;14.23;11.18;;;;;;;5.57;100.00;98464.95;1707479;84;21170;-73
2021/01/25 05:08:17;;;;;;;17.75;12.10;;;;;;;5.60;100.00;98465.00;1706260;84;21230;-71
2021/01/25 05:10:44;;;;;;;13.58;10.68;;;;;;;5.62;100.00;98471.69;1706544;83;21227;-72
2021/01/25 05:13:24;;;;;;;13.50;10.75;;;;;;;5.58;100.00;98462.58;1708360;84;21046;-71
2021/01/25 05:15:52;;;;;;;14.68;12.78;;;;;;;5.55;100.00;98466.27;1707863;84;21590;-70
2021/01/25 05:18:24;;;;;;;16.77;11.57;;;;;;;5.49;100.00;98469.92;1706314;84;21178;-69
2021/01/25 05:20:55;;;;;;;16.12;11.57;;;;;;;5.46;100.00;98468.56;1708505;83;21134;-71
2021/01/25 05:23:23;;;;;;;16.62;11.55;;;;;;;5.44;100.00;98467.18;1704595;84;22146;-72
2021/01/25 05:25:50;;;;;;;18.02;10.82;;;;;;;5.43;100.00;98468.23;1704222;84;21206;-73
2021/01/25 05:28:19;;;;;;;14.18;9.88;;;;;;;5.45;100.00;98473.61;1708239;84;21619;-72
2021/01/25 05:30:47;;;;;;;20.25;13.55;;;;;;;5.45;100.00;98473.61;1676997;84;21178;-74
2021/01/25 05:33:27;;;;;;;22.32;12.73;;;;;;;5.46;100.00;98471.75;1704096;84;21789;-73
2021/01/25 05:35:55;;;;;;;18.70;13.20;;;;;;;5.56;100.00;98467.89;1701611;83;21271;-71
2021/01/25 05:38:23;;;;;;;13.48;10.00;;;;;;;5.61;100.00;98480.73;1703743;84;21142;-75
2021/01/25 05:40:56;;;;;;;15.38;10.75;;;;;;;5.59;100.00;98480.20;1679125;85;21186;-73
2021/01/25 05:43:32;;;;;;;11.48;8.68;;;;;;;5.59;100.00;98486.05;1709058;84;21607;-71
2021/01/25 05:46:08;;;;;;;14.75;9.40;;;;;;;5.58;100.00;98483.10;1704089;84;21177;-71
2021/01/25 05:48:35;;;;;;;12.95;9.43;;;;;;;5.58;100.00;98491.91;1674896;84;22246;-72
2021/01/25 05:51:19;;;;;;;13.95;10.53;;;;;;;5.56;100.00;98485.23;1674211;85;21177;-71
2021/01/25 05:53:47;;;;;;;18.02;12.85;;;;;;;5.54;100.00;98491.31;1674417;85;21031;-71
2021/01/25 05:56:16;;;;;;;16.90;11.00;;;;;;;5.51;100.00;98497.16;1674594;85;21174;-73
2021/01/25 05:58:44;;;;;;;20.97;11.85;;;;;;;5.50;100.00;98500.34;1689149;85;21109;-72
2021/01/25 06:01:12;;;;;;;16.17;12.50;;;;;;;5.54;100.00;98499.31;1706416;84;21617;-71
2021/01/25 06:03:40;;;;;;;15.78;12.18;;;;;;;5.52;100.00;98502.74;1704083;84;21044;-72
2021/01/25 06:06:12;;;;;;;15.40;11.22;;;;;;;5.59;100.00;98496.72;1704969;84;21137;-72
2021/01/25 06:08:54;;;;;;;10.60;9.50;;;;;;;5.61;100.00;98491.95;1688587;84;21172;-73
2021/01/25 06:11:25;;;;;;;;;;;;;;;5.63;100.00;98502.64;1691878;85;21164;-71
2021/01/25 06:14:25;;;;;;;12.03;10.23;;;;;;;5.67;100.00;98505.09;1675665;85;21298;-72
2021/01/25 06:16:52;;;;;;;13.32;10.58;;;;;;;5.68;100.00;98497.38;1694407;84;21124;-72
2021/01/25 06:19:24;;;;;;;11.48;9.55;;;;;;;5.68;100.00;98507.23;1649364;84;21202;-72
2021/01/25 06:21:51;;;;;;;17.05;11.97;;;;;;;5.67;100.00;98509.09;1690924;84;21166;-70
2021/01/25 06:24:19;;;;;;;14.15;11.55;;;;;;;5.64;100.00;98503.45;1704082;83;21158;-71
2021/01/25 06:26:50;;;;;;;14.95;8.58;;;;;;;5.65;100.00;98499.74;1704097;84;21217;-70
2021/01/25 06:29:20;;;;;;;16.85;11.65;;;;;;;5.71;100.00;98491.54;1691869;84;21640;-69
2021/01/25 06:31:55;;;;;;;17.23;11.85;;;;;;;5.77;100.00;98496.41;1706205;83;21248;-69
2021/01/25 06:34:25;;;;;;;18.32;10.25;;;;;;;5.75;100.00;98487.06;1706891;84;21193;-68
2021/01/25 06:36:53;;;;;;;17.87;11.18;;;;;;;5.74;100.00;98480.91;1685074;84;21125;-68
2021/01/25 06:39:27;;;;;;;19.45;11.83;;;;;;;5.78;100.00;98474.55;1686055;84;22053;-70
2021/01/25 06:42:05;;;;;;;18.62;13.93;;;;;;;5.80;100.00;98466.59;1704575;84;21585;-70
2021/01/25 06:44:33;;;;;;;14.07;10.98;;;;;;;5.83;100.00;98474.61;1704090;84;21225;-68
2021/01/25 06:47:04;;;;;;;13.70;9.68;;;;;;;5.84;100.00;98469.04;1706096;83;21181;-70
2021/01/25 06:49:31;;;;;;;10.32;9.20;;;;;;;5.83;100.00;98466.61;1705227;84;21571;-71
2021/01/25 06:51:59;;;;;;;12.15;8.00;;;;;;;5.86;100.00;98462.09;1704402;84;21162;-67
2021/01/25 06:54:26;;;;;;;12.78;9.98;;;;;;;5.83;100.00;98472.75;1704250;83;22390;-70
2021/01/25 06:57:00;;;;;;;16.55;13.25;;;;;;;5.81;100.00;98471.38;1704081;83;21161;-69
2021/01/25 06:59:31;;;;;;;14.25;10.08;;;;;;;5.82;100.00;98481.00;1704119;83;21174;-69
2021/01/25 07:01:59;;;;;;;10.88;8.78;;;;;;;5.85;100.00;98499.97;1704092;84;21153;-69
2021/01/25 07:04:30;;;;;;;12.05;8.60;;;;;;;5.85;100.00;98501.86;1704117;84;21272;-69
2021/01/25 07:06:57;;;;;;;13.03;8.88;;;;;;;5.82;100.00;98493.81;1705816;82;21678;-73
2021/01/25 07:09:31;;;;;;;10.88;9.08;;;;;;;5.85;100.00;98493.86;1695774;83;21216;-69
2021/01/25 07:12:03;;;;;;;12.25;9.03;;;;;;;5.80;100.00;98495.94;1720142;83;21144;-70
2021/01/25 07:14:32;;;;;;;8.80;7.55;;;;;;;5.77;100.00;98496.41;1719778;83;21149;-69
2021/01/25 07:17:01;;;;;;;10.10;8.60;;;;;;;5.79;100.00;98492.98;1719780;83;21376;-69
2021/01/25 07:19:29;;;;;;;9.78;7.83;;;;;;;5.83;100.00;98480.76;1714795;83;21216;-70
2021/01/25 07:21:57;;;;;;;10.55;8.98;;;;;;;5.86;100.00;98485.58;1715770;83;21193;-81
2021/01/25 07:24:26;;;;;;;15.72;9.85;;;;;;;5.88;100.00;98482.19;1717591;83;21153;-71
2021/01/25 07:26:58;;;;;;;8.90;7.22;;;;;;;5.92;100.00;98477.15;1716842;83;21133;-72
2021/01/25 07:29:26;;;;;;;10.10;8.95;;;;;;;5.94;100.00;98479.86;1719830;83;21223;-70
2021/01/25 07:31:55;;;;;;;12.95;9.15;;;;;;;5.97;100.00;98483.36;1719675;83;21184;-72
2021/01/25 07:34:25;;;;;;;11.85;9.13;;;;;;;6.05;100.00;98482.91;1688613;83;21197;-69
2021/01/25 07:36:52;;;;;;;9.78;7.85;;;;;;;6.06;100.00;98483.72;1676464;85;21146;-71
2021/01/25 07:39:21;;;;;;;10.90;9.25;;;;;;;6.07;100.00;98475.99;1676186;84;21181;-69
2021/01/25 07:41:49;;;;;;;12.50;8.43;;;;;;;6.08;100.00;98481.61;1677069;83;21215;-70
2021/01/25 07:44:17;;;;;;;11.97;9.45;;;;;;;6.05;100.00;98477.56;1699206;83;21159;-70
2021/01/25 07:46:47;;;;;;;11.55;9.83;;;;;;;6.05;100.00;98470.89;1725920;82;21015;-67
2021/01/25 07:49:15;;;;;;;11.83;7.83;;;;;;;6.07;100.00;98458.64;1751158;81;21152;-70
2021/01/25 07:51:43;;;;;;;13.38;9.13;;;;;;;6.10;100.00;98460.80;1728590;81;21156;-84
2021/01/25 07:54:15;;;;;;;17.00;11.45;;;;;;;6.06;100.00;98455.17;1751715;81;21149;-69
2021/01/25 07:56:42;;;;;;;10.78;9.68;;;;;;;6.06;100.00;98457.84;1724036;81;21157;-71
2021/01/25 07:59:14;;;;;;;10.85;8.83;;;;;;;6.11;100.00;98454.41;1704237;84;21141;-70
2021/01/25 08:01:47;;;;;;;14.58;11.80;;;;;;;6.12;100.00;98458.17;1704278;84;21209;-70
2021/01/25 08:04:16;;;;;;;12.88;9.98;;;;;;;6.11;100.00;98460.56;1704331;83;21210;-69
2021/01/25 08:06:43;;;;;;;12.35;10.05;;;;;;;6.13;100.00;98467.80;1703998;84;21812;-69
2021/01/25 08:09:12;;;;;;;10.28;8.55;;;;;;;6.18;100.00;98467.05;1678984;85;21174;-71
2021/01/25 08:11:40;;;;;;;11.65;8.65;;;;;;;6.22;100.00;98472.16;1704268;84;21003;-69
2021/01/25 08:14:28;;;;;;;12.33;9.60;;;;;;;6.23;100.00;98459.62;1704193;83;21141;-70
2021/01/25 08:17:00;;;;;;;14.90;9.75;;;;;;;6.21;100.00;98452.38;1689620;84;21116;-69
2021/01/25 08:19:43;;;;;;;12.35;9.28;;;;;;;6.19;100.00;98467.30;1709449;84;21206;-72
2021/01/25 08:22:44;;;;;;;8.13;7.30;;;;;;;6.20;100.00;98465.44;1676008;85;21016;-69
2021/01/25 08:25:22;;;;;;;16.42;10.98;;;;;;;6.21;100.00;98465.72;1683230;84;21166;-70
2021/01/25 08:28:09;;;;;;;12.28;9.78;;;;;;;6.15;100.00;98462.19;1704026;84;21625;-69
2021/01/25 08:30:44;;;;;;;12.68;9.43;;;;;;;6.08;100.00;98464.27;1701913;84;21168;-70
2021/01/25 08:33:15;;;;;;;13.80;10.85;;;;;;;6.08;100.00;98461.59;1702253;83;21200;-70
2021/01/25 08:35:57;;;;;;;15.83;13.17;;;;;;;6.07;100.00;98458.12;1701555;84;21170;-70
2021/01/25 08:38:31;;;;;;;13.88;10.48;;;;;;;6.12;100.00;98462.70;1701434;83;21738;-71
2021/01/25 08:41:01;;;;;;;11.95;9.98;;;;;;;6.16;100.00;98453.13;1701303;84;21593;-69
2021/01/25 08:43:32;;;;;;;13.93;11.60;;;;;;;6.20;100.00;98451.56;1701375;84;21211;-70
2021/01/25 08:46:15;;;;;;;13.10;9.90;;;;;;;6.19;100.00;98442.50;1701351;84;21199;-68
2021/01/25 08:48:43;;;;;;;13.60;11.35;;;;;;;6.18;100.00;98432.34;1695211;83;21150;-71
2021/01/25 08:51:16;;;;;;;17.80;12.35;;;;;;;6.18;100.00;98436.88;1696012;84;21040;-70
2021/01/25 08:53:44;;;;;;;15.88;13.22;;;;;;;6.23;100.00;98436.40;1652731;85;21183;-69
2021/01/25 08:56:17;;;;;;;17.05;12.10;;;;;;;6.25;100.00;98428.12;1676189;85;21179;-68
2021/01/25 08:58:45;;;;;;;16.95;13.18;;;;;;;6.28;100.00;98420.95;1658975;86;21284;-81
2021/01/25 09:01:20;;;;;;;16.75;12.60;;;;;;;6.34;100.00;98431.94;1647324;87;21166;-70
2021/01/25 09:03:47;;;;;;;15.38;11.20;;;;;;;6.39;100.00;98423.45;1688994;84;21206;-69
2021/01/25 09:06:14;;;;;;;18.62;12.68;;;;;;;6.43;100.00;98411.20;1691510;84;21206;-68
2021/01/25 09:08:44;;;;;;;20.70;12.82;;;;;;;6.40;99.80;98402.90;1696211;84;21559;-69
2021/01/25 09:11:11;;;;;;;17.90;12.55;;;;;;;6.31;99.67;98405.76;1659775;85;21379;-68
2021/01/25 09:13:38;;;;;;;14.75;11.48;;;;;;;6.28;99.88;98404.41;1695525;84;21241;-69
2021/01/25 09:16:07;;;;;;;20.55;15.15;;;;;;;6.31;100.00;98401.75;1680536;84;21591;-73
2021/01/25 09:18:35;;;;;;;18.70;13.13;;;;;;;6.30;100.00;98401.47;1662734;86;22301;-69
2021/01/25 09:21:04;;;;;;;16.87;14.30;;;;;;;6.31;100.00;98399.08;1662970;86;21173;-69
2021/01/25 09:23:31;;;;;;;23.80;16.42;;;;;;;6.32;100.00;98387.34;1652996;86;21583;-70
2021/01/25 09:25:58;;;;;;;16.45;12.98;;;;;;;6.28;100.00;98393.73;1648757;87;21642;-70
2021/01/25 09:28:26;;;;;;;18.62;13.35;;;;;;;6.27;100.00;98394.78;1648627;87;21127;-71
2021/01/25 09:30:53;;;;;;;18.60;14.23;;;;;;;6.30;100.00;98395.61;1635869;87;22267;-70
2021/01/25 09:33:21;;;;;;;17.30;13.80;;;;;;;6.33;100.00;98402.31;1643718;86;21187;-69
2021/01/25 09:35:48;;;;;;;21.95;15.88;;;;;;;6.38;100.00;98389.79;1648633;87;21800;-68
2021/01/25 09:38:15;;;;;;;27.45;16.65;;;;;;;6.43;100.00;98393.03;1648502;87;21164;-70
2021/01/25 09:40:44;;;;;;;22.10;16.67;;;;;;;6.37;100.00;98380.19;1660866;86;21129;-72
2021/01/25 09:43:11;;;;;;;25.95;17.30;;;;;;;6.32;100.00;98369.47;1662880;86;21042;-69
2021/01/25 09:45:38;;;;;;;25.17;18.77;;;;;;;6.32;100.00;98368.13;1662942;86;21212;-69
2021/01/25 09:48:08;;;;;;;28.15;18.60;;;;;;;6.31;100.00;98367.05;1663446;84;21382;-71
2021/01/25 09:50:35;;;;;;;33.92;18.82;;;;;;;6.26;100.00;98377.16;1682460;84;20960;-72
2021/01/25 09:53:03;;;;;;;26.15;16.42;;;;;;;6.25;100.00;98380.88;1678041;84;21056;-69
2021/01/25 09:55:30;;;;;;;23.73;16.82;;;;;;;6.26;100.00;98365.14;1677563;85;21105;-70
2021/01/25 09:57:57;;;;;;;25.15;16.97;;;;;;;6.27;100.00;98364.61;1677429;85;21730;-74
2021/01/25 10:00:26;;;;;;;24.70;17.75;;;;;;;6.24;100.00;98361.09;1680249;84;21392;-70
2021/01/25 10:02:53;;;;;;;23.25;15.78;;;;;;;6.24;100.00;98354.42;1692183;84;21183;-68
2021/01/25 10:05:21;;;;;;;27.62;16.60;;;;;;;6.30;100.00;98356.08;1688596;84;21217;-69
2021/01/25 10:07:49;;;;;;;21.85;14.63;;;;;;;6.28;100.00;98344.88;1677433;85;21250;-72
2021/01/25 10:10:16;;;;;;;24.55;15.85;;;;;;;6.31;100.00;98327.80;1684022;84;21161;-70
2021/01/25 10:12:43;;;;;;;21.25;14.00;;;;;;;6.32;100.00;98336.09;1677456;85;21152;-69
2021/01/25 10:15:15;;;;;;;21.07;13.58;;;;;;;6.34;100.00;98333.95;1690104;84;21142;-80
2021/01/25 10:17:43;;;;;;;22.22;14.18;;;;;;;6.36;100.00;98335.85;1692409;84;21134;-70
2021/01/25 10:20:12;;;;;;;19.73;12.80;;;;;;;6.38;100.00;98327.59;1684629;84;21176;-71
2021/01/25 10:22:40;;;;;;;19.07;12.75;;;;;;;6.38;100.00;98324.93;1684436;84;21176;-68
2021/01/25 10:27:48;;;;;;;23.38;13.85;;;;;;;6.36;100.00;98299.00;1690404;84;21225;-69
2021/01/25 10:30:18;;;;;;;19.50;12.55;;;;;;;6.37;100.00;98292.08;1688888;83;21161;-68
2021/01/25 10:32:45;;;;;;;17.57;13.25;;;;;;;6.39;100.00;98293.14;1688103;84;21116;-73
2021/01/25 10:35:15;;;;;;;16.60;12.37;;;;;;;6.39;100.00;98293.14;1691069;84;21048;-73
2021/01/25 10:37:43;;;;;;;19.85;11.80;;;;;;;6.40;100.00;98288.08;1689588;84;22116;-70
2021/01/25 10:40:14;;;;;;;22.30;13.55;;;;;;;6.43;100.00;98283.55;1710652;83;21330;-69
2021/01/25 10:42:42;;;;;;;20.10;15.72;;;;;;;6.44;100.00;98279.30;1689585;84;21182;-69
2021/01/25 10:45:10;;;;;;;21.30;15.00;;;;;;;6.41;100.00;98263.80;1699316;83;21147;-71
2021/01/25 10:47:38;;;;;;;20.37;14.85;;;;;;;6.40;100.00;98254.17;1698973;83;21562;-69
2021/01/25 10:50:11;;;;;;;20.65;13.80;;;;;;;6.45;100.00;98250.73;1688022;84;22511;-70
2021/01/25 10:52:40;;;;;;;25.40;17.95;;;;;;;6.54;100.00;98243.30;1669955;83;21159;-72
2021/01/25 10:55:10;;;;;;;24.60;14.60;;;;;;;6.54;100.00;98243.30;1727372;83;21054;-69
2021/01/25 10:57:39;;;;;;;27.35;17.92;;;;;;;6.56;100.00;98228.36;1707272;83;22153;-69
2021/01/25 11:00:15;;;;;;;29.10;18.25;;;;;;;6.54;100.00;98237.16;1692877;84;21151;-70
2021/01/25 11:02:44;;;;;;;28.07;16.97;;;;;;;6.54;100.00;98239.83;1674497;84;21602;-71
2021/01/25 11:05:14;;;;;;;26.17;14.60;;;;;;;6.55;100.00;98234.77;1682027;84;21184;-70
2021/01/25 11:07:42;;;;;;;34.60;18.23;;;;;;;6.51;100.00;98227.81;1681588;84;21050;-75
2021/01/25 11:10:19;;;;;;;23.00;14.53;;;;;;;6.49;100.00;98203.75;1667498;84;37529;-70
2021/01/25 11:12:48;;;;;;;16.12;12.00;;;;;;;6.55;100.00;98206.72;1698357;83;21189;-71
2021/01/25 11:15:17;;;;;;;20.27;15.30;;;;;;;6.58;100.00;98211.53;1698611;84;21583;-74
2021/01/25 11:17:44;;;;;;;19.92;13.32;;;;;;;6.57;100.00;98188.02;1695451;84;21066;-66
2021/01/25 11:20:17;;;;;;;19.15;13.68;;;;;;;6.61;100.00;98187.52;1683547;84;21218;-80
2021/01/25 11:22:44;;;;;;;21.23;13.20;;;;;;;6.62;100.00;98192.58;1694320;84;21111;-81
2021/01/25 11:25:12;;;;;;;20.10;13.22;;;;;;;6.64;100.00;98187.80;1689391;84;21597;-72
2021/01/25 11:27:40;;;;;;;17.67;12.05;;;;;;;6.65;100.00;98185.41;1687498;84;21209;-74
2021/01/25 11:30:09;;;;;;;23.52;13.30;;;;;;;6.61;100.00;98186.98;1699843;84;21017;-71
2021/01/25 11:32:37;;;;;;;20.60;14.70;;;;;;;6.60;100.00;98173.89;1714911;83;21616;-71
2021/01/25 11:35:08;;;;;;;25.43;15.93;;;;;;;6.63;100.00;98179.50;1699997;84;21179;-80